Time;durP1;ratioP1;P1;durP2;ratioP2;P2;SDS_P1;SDS_P2;PMS_P1;PMS_P2;Temp;Humidity;BMP_temperature;BMP_pressure;BME280_temperature;BME280_humidity;BME280_pressure;Samples;Min_cycle;Max_cycle;Signal;HPM_P1;HPM_P2
2022/01/02 00:00:14;;;;;;;3.20;1.38;;;13.40;99.90;;;;;;5074195;28;20075;-55
2022/01/02 00:02:41;;;;;;;1.83;1.10;;;13.40;99.90;;;;;;5085209;28;20067;-58
2022/01/02 00:05:12;;;;;;;2.13;1.25;;;13.40;99.90;;;;;;5084080;28;20555;-57
2022/01/02 00:07:57;;;;;;;2.97;1.38;;;13.40;99.90;;;;;;5085784;28;20047;-57
2022/01/02 00:10:24;;;;;;;3.83;1.55;;;13.40;99.90;;;;;;5086002;28;20125;-56
2022/01/02 00:12:54;;;;;;;3.35;1.80;;;13.40;99.90;;;;;;5083333;28;20127;-56
2022/01/02 00:15:21;;;;;;;2.40;1.15;;;13.30;99.90;;;;;;5065496;28;20071;-57
2022/01/02 00:17:53;;;;;;;2.88;1.38;;;13.40;99.90;;;;;;5081597;28;20054;-55
2022/01/02 00:20:21;;;;;;;2.65;1.20;;;13.40;99.90;;;;;;5057596;28;20072;-53
2022/01/02 00:22:51;;;;;;;1.60;1.00;;;13.40;99.90;;;;;;5082766;28;20082;-58
2022/01/02 00:25:28;;;;;;;2.47;1.15;;;13.40;99.90;;;;;;5067949;28;20048;-52
2022/01/02 00:27:55;;;;;;;2.97;1.23;;;13.40;99.90;;;;;;5079948;28;20139;-56
2022/01/02 00:30:21;;;;;;;1.95;1.10;;;13.50;99.90;;;;;;5081192;28;20645;-53
2022/01/02 00:32:48;;;;;;;1.95;1.05;;;13.50;99.90;;;;;;5078939;28;20094;-54
2022/01/02 00:35:15;;;;;;;1.92;0.90;;;13.50;99.90;;;;;;5079497;28;20083;-57
2022/01/02 00:37:41;;;;;;;2.83;1.08;;;13.50;99.90;;;;;;5085270;28;20083;-56
2022/01/02 00:40:09;;;;;;;2.42;1.40;;;13.50;99.90;;;;;;5084709;28;20134;-55
2022/01/02 00:42:39;;;;;;;2.38;1.30;;;13.50;99.90;;;;;;5081449;28;20084;-57
2022/01/02 00:45:15;;;;;;;2.42;1.30;;;13.50;99.90;;;;;;5082654;28;20075;-55
2022/01/02 00:47:50;;;;;;;3.13;1.38;;;13.50;99.90;;;;;;5082219;28;20192;-57
2022/01/02 00:50:22;;;;;;;3.38;1.17;;;13.50;99.90;;;;;;5050613;28;20121;-55
2022/01/02 00:52:49;;;;;;;3.65;1.35;;;13.50;99.90;;;;;;5081438;28;20075;-58
2022/01/02 00:55:19;;;;;;;3.03;1.60;;;13.50;99.90;;;;;;5083891;28;20146;-57
2022/01/02 00:57:58;;;;;;;3.13;1.60;;;13.50;99.90;;;;;;5083295;28;20086;-57
2022/01/02 01:00:25;;;;;;;3.13;1.40;;;13.50;99.90;;;;;;5080291;28;20139;-59
2022/01/02 01:02:56;;;;;;;3.45;1.48;;;13.50;99.90;;;;;;5079402;28;20155;-58
2022/01/02 01:05:27;;;;;;;2.92;1.42;;;13.50;99.90;;;;;;5076264;28;20043;-57
2022/01/02 01:07:56;;;;;;;3.67;1.52;;;13.50;99.90;;;;;;5079250;28;20421;-57
2022/01/02 01:10:23;;;;;;;2.90;1.50;;;13.50;99.90;;;;;;5082982;28;20079;-57
2022/01/02 01:12:52;;;;;;;5.63;2.00;;;13.50;99.90;;;;;;5081544;28;20071;-55
2022/01/02 01:15:20;;;;;;;3.03;1.52;;;13.50;99.90;;;;;;5077864;28;20425;-56
2022/01/02 01:17:47;;;;;;;3.60;1.45;;;13.50;99.90;;;;;;5080841;28;20246;-57
2022/01/02 01:20:14;;;;;;;3.22;1.30;;;13.50;99.90;;;;;;5080818;28;20601;-57
2022/01/02 01:22:41;;;;;;;5.00;1.65;;;13.40;99.90;;;;;;5082516;28;20127;-58
2022/01/02 01:25:13;;;;;;;3.47;1.63;;;13.40;99.90;;;;;;5081623;28;20083;-55
2022/01/02 01:27:40;;;;;;;3.95;1.42;;;13.40;99.90;;;;;;5082797;28;20127;-58
2022/01/02 01:30:08;;;;;;;5.45;2.28;;;13.40;99.90;;;;;;5081931;28;20574;-58
2022/01/02 01:32:35;;;;;;;4.68;1.65;;;13.30;99.90;;;;;;5082626;28;20139;-54
2022/01/02 01:35:02;;;;;;;5.25;1.70;;;13.30;99.90;;;;;;5081852;28;20126;-58
2022/01/02 01:37:30;;;;;;;6.43;1.73;;;13.30;99.90;;;;;;5082523;28;20048;-58
2022/01/02 01:39:57;;;;;;;5.18;1.48;;;13.30;99.90;;;;;;5082920;28;20519;-56
2022/01/02 01:42:38;;;;;;;3.95;1.70;;;13.30;99.90;;;;;;5081953;28;20151;-58
2022/01/02 01:47:34;;;;;;;2.42;1.20;;;13.30;99.90;;;;;;5079487;28;20046;-57
2022/01/02 01:50:01;;;;;;;4.30;1.30;;;13.30;99.90;;;;;;5082145;28;20064;-56
2022/01/02 01:52:27;;;;;;;4.65;1.60;;;13.30;99.90;;;;;;5083049;28;20126;-58
2022/01/02 01:54:54;;;;;;;2.08;1.13;;;13.30;99.90;;;;;;5081478;28;20074;-57
2022/01/02 01:57:21;;;;;;;3.13;1.30;;;13.30;99.90;;;;;;5080819;28;20083;-54
2022/01/02 01:59:48;;;;;;;5.75;2.00;;;13.30;99.90;;;;;;5078837;28;20140;-55
2022/01/02 02:02:17;;;;;;;3.10;1.35;;;13.30;99.90;;;;;;5078365;28;20135;-57
2022/01/02 02:04:44;;;;;;;4.65;1.38;;;13.20;99.90;;;;;;5074699;28;20399;-58
2022/01/02 02:07:11;;;;;;;5.10;1.90;;;13.30;99.90;;;;;;5077120;28;20175;-58
2022/01/02 02:10:24;;;;;;;4.28;1.65;;;13.20;99.90;;;;;;5082738;28;20689;-55
2022/01/02 02:12:24;;;;;;;3.05;1.77;;;13.20;99.90;;;;;;5078527;28;20083;-58
2022/01/02 02:14:51;;;;;;;5.15;2.20;;;13.20;99.90;;;;;;5081733;28;20448;-59
2022/01/02 02:17:18;;;;;;;5.72;1.65;;;13.20;99.90;;;;;;5081433;28;20072;-57
2022/01/02 02:19:46;;;;;;;5.28;1.80;;;13.20;99.90;;;;;;5083118;28;20131;-58
2022/01/02 02:22:13;;;;;;;5.07;2.05;;;13.20;99.90;;;;;;5082387;28;20094;-58
2022/01/02 02:24:40;;;;;;;5.05;2.10;;;13.20;99.90;;;;;;5084268;28;20153;-60
2022/01/02 02:27:07;;;;;;;4.95;2.33;;;13.20;99.90;;;;;;5085781;28;20105;-57
2022/01/02 02:29:34;;;;;;;4.68;2.10;;;13.10;99.90;;;;;;5086199;28;20126;-58
2022/01/02 02:32:00;;;;;;;4.13;2.25;;;13.10;99.90;;;;;;5087414;28;20143;-56
2022/01/02 02:34:27;;;;;;;2.58;1.63;;;13.10;99.90;;;;;;5087209;28;20059;-58
2022/01/02 02:36:54;;;;;;;4.90;2.35;;;13.00;99.90;;;;;;5089959;28;20143;-57
2022/01/02 02:39:21;;;;;;;4.30;2.08;;;13.00;99.90;;;;;;5089080;28;20609;-55
2022/01/02 02:41:47;;;;;;;3.78;1.75;;;13.00;99.90;;;;;;5089390;28;20098;-58
2022/01/02 02:44:34;;;;;;;4.28;2.15;;;13.00;99.90;;;;;;5086165;28;20700;-57
2022/01/02 02:49:46;;;;;;;4.50;1.80;;;12.90;99.90;;;;;;5087592;28;20072;-57
2022/01/02 02:52:55;;;;;;;3.08;1.58;;;12.90;99.90;;;;;;5088079;28;20079;-55
2022/01/02 02:55:03;;;;;;;6.53;2.13;;;12.90;99.90;;;;;;5084366;28;20131;-57
2022/01/02 02:57:32;;;;;;;4.30;2.00;;;12.80;99.90;;;;;;5087009;28;20163;-56
2022/01/02 02:59:58;;;;;;;4.63;2.08;;;12.80;99.90;;;;;;5086642;28;20184;-58
2022/01/02 03:02:25;;;;;;;5.85;2.05;;;12.70;99.90;;;;;;5087550;28;20075;-57
2022/01/02 03:04:52;;;;;;;2.88;1.80;;;12.70;99.90;;;;;;5087130;28;20503;-58
2022/01/02 03:07:19;;;;;;;3.88;1.70;;;12.60;99.90;;;;;;5086809;28;20079;-58
2022/01/02 03:09:51;;;;;;;2.20;1.10;;;12.60;99.90;;;;;;5087510;28;20143;-57
2022/01/02 03:12:19;;;;;;;2.60;1.38;;;12.60;99.90;;;;;;5087368;28;20557;-57
2022/01/02 03:14:45;;;;;;;1.98;1.20;;;12.60;99.90;;;;;;5086732;28;20645;-57
2022/01/02 03:17:14;;;;;;;3.15;1.20;;;12.50;99.90;;;;;;5086911;28;20070;-52
2022/01/02 03:19:41;;;;;;;2.67;1.23;;;12.50;99.90;;;;;;5086762;28;20139;-56
2022/01/02 03:22:08;;;;;;;1.67;1.05;;;12.50;99.90;;;;;;5087082;28;20138;-56
2022/01/02 03:24:35;;;;;;;2.55;0.90;;;12.50;99.90;;;;;;5087288;28;20048;-54
2022/01/02 03:27:01;;;;;;;1.15;0.60;;;12.50;99.90;;;;;;5086972;28;20310;-53
2022/01/02 03:29:28;;;;;;;1.80;0.60;;;12.50;99.90;;;;;;5085450;28;20186;-57
2022/01/02 03:31:55;;;;;;;1.75;1.05;;;12.50;99.90;;;;;;5087098;28;20052;-52
2022/01/02 03:34:22;;;;;;;1.17;0.60;;;12.50;99.90;;;;;;5086380;28;20301;-55
2022/01/02 03:36:49;;;;;;;1.38;0.80;;;12.50;99.90;;;;;;5086335;28;20082;-56
2022/01/02 03:39:16;;;;;;;1.55;0.77;;;12.50;99.90;;;;;;5085383;28;20535;-58
2022/01/02 03:41:43;;;;;;;0.98;0.63;;;12.50;99.90;;;;;;5086527;28;20091;-56
2022/01/02 03:44:09;;;;;;;0.52;0.50;;;12.60;99.90;;;;;;5085584;28;20119;-55
2022/01/02 03:46:36;;;;;;;0.73;0.70;;;12.60;99.90;;;;;;5086150;28;20090;-53
2022/01/02 03:49:03;;;;;;;0.47;0.47;;;12.60;99.90;;;;;;5085477;28;20139;-57
2022/01/02 03:51:30;;;;;;;0.68;0.52;;;12.60;99.90;;;;;;5086416;28;20139;-56
2022/01/02 03:53:56;;;;;;;0.60;0.40;;;12.60;99.90;;;;;;5086422;28;20160;-53
2022/01/02 03:56:23;;;;;;;1.08;0.80;;;12.60;99.90;;;;;;5085889;28;20071;-58
2022/01/02 03:58:50;;;;;;;0.82;0.50;;;12.60;99.90;;;;;;5084628;28;20048;-57
2022/01/02 04:01:16;;;;;;;1.27;0.70;;;12.60;99.90;;;;;;5086904;28;20040;-56
2022/01/02 04:03:43;;;;;;;1.45;0.80;;;12.60;99.90;;;;;;5085784;28;20044;-55
2022/01/02 04:06:10;;;;;;;1.55;0.93;;;12.60;99.90;;;;;;5085556;28;20143;-57
2022/01/02 04:08:37;;;;;;;2.22;1.00;;;12.60;99.90;;;;;;5086163;28;20139;-57
2022/01/02 04:11:03;;;;;;;1.83;0.82;;;12.60;99.90;;;;;;5086418;28;20078;-56
2022/01/02 04:13:30;;;;;;;1.88;1.02;;;12.50;99.90;;;;;;5085188;28;20072;-57
2022/01/02 04:15:57;;;;;;;1.75;1.05;;;12.50;99.90;;;;;;5085717;28;20087;-53
2022/01/02 04:18:24;;;;;;;1.50;0.88;;;12.50;99.90;;;;;;5085056;28;20094;-57
2022/01/02 04:20:51;;;;;;;2.00;0.80;;;12.50;99.90;;;;;;5085535;28;20130;-55
2022/01/02 04:23:18;;;;;;;1.77;0.82;;;12.50;99.90;;;;;;5086036;28;20110;-52
2022/01/02 04:25:45;;;;;;;1.25;1.00;;;12.50;99.90;;;;;;5085737;28;20048;-56
2022/01/02 04:28:12;;;;;;;2.10;0.90;;;12.50;99.90;;;;;;5084498;28;20094;-57
2022/01/02 04:30:38;;;;;;;1.70;0.82;;;12.50;99.90;;;;;;5084483;28;20087;-55
2022/01/02 04:33:05;;;;;;;1.10;0.80;;;12.50;99.90;;;;;;5084923;28;20054;-58
2022/01/02 04:35:32;;;;;;;3.88;1.13;;;12.50;99.90;;;;;;5085152;28;20086;-57
2022/01/02 04:37:59;;;;;;;2.78;1.20;;;12.50;99.90;;;;;;5085322;28;20139;-56
2022/01/02 04:40:26;;;;;;;2.00;0.98;;;12.60;99.90;;;;;;5085249;28;20075;-57
2022/01/02 04:42:52;;;;;;;2.78;1.10;;;12.60;99.90;;;;;;5085701;28;20697;-55
2022/01/02 04:45:19;;;;;;;1.92;1.33;;;12.60;99.90;;;;;;5084730;28;20155;-58
2022/01/02 04:47:46;;;;;;;3.58;1.67;;;12.60;99.90;;;;;;5084554;28;20109;-57
2022/01/02 04:50:13;;;;;;;3.10;1.40;;;12.60;99.90;;;;;;5085927;28;20079;-57
2022/01/02 04:52:39;;;;;;;2.60;1.30;;;12.60;99.90;;;;;;5085216;28;20241;-55
2022/01/02 04:55:07;;;;;;;2.28;1.35;;;12.60;99.90;;;;;;5085565;28;20040;-53
2022/01/02 04:57:34;;;;;;;3.53;1.50;;;12.60;99.90;;;;;;5084866;28;20809;-54
2022/01/02 05:00:01;;;;;;;2.30;1.40;;;12.60;99.90;;;;;;5083274;28;20040;-56
2022/01/02 05:02:27;;;;;;;2.80;1.60;;;12.60;99.90;;;;;;5085455;28;20651;-57
2022/01/02 05:04:54;;;;;;;3.65;1.70;;;12.70;99.90;;;;;;5085153;28;20048;-56
2022/01/02 05:07:21;;;;;;;4.75;1.60;;;12.70;99.90;;;;;;5084733;28;20135;-57
2022/01/02 05:09:48;;;;;;;3.63;1.77;;;12.70;99.90;;;;;;5085315;28;20047;-56
2022/01/02 05:12:14;;;;;;;4.78;1.88;;;12.70;99.90;;;;;;5085224;28;20154;-56
2022/01/02 05:14:41;;;;;;;3.53;1.92;;;12.70;99.90;;;;;;5084301;28;20098;-53
2022/01/02 05:17:08;;;;;;;5.38;2.38;;;12.70;99.90;;;;;;5084781;28;20040;-58
2022/01/02 05:19:35;;;;;;;5.57;2.20;;;12.60;99.90;;;;;;5084510;28;20087;-58
2022/01/02 05:22:02;;;;;;;6.80;2.58;;;12.50;99.90;;;;;;5084898;28;20135;-57
2022/01/02 05:24:28;;;;;;;6.22;2.92;;;12.50;99.90;;;;;;5085104;28;20091;-57
2022/01/02 05:26:55;;;;;;;5.78;2.00;;;12.40;99.90;;;;;;5084782;28;20071;-54
2022/01/02 05:29:22;;;;;;;3.83;2.00;;;12.40;99.90;;;;;;5083244;28;20051;-56
2022/01/02 05:31:49;;;;;;;8.10;2.10;;;12.30;99.90;;;;;;5085347;28;20135;-57
2022/01/02 05:34:16;;;;;;;3.60;1.75;;;12.30;99.90;;;;;;5084360;28;20071;-58
2022/01/02 05:36:48;;;;;;;4.13;1.60;;;12.30;99.90;;;;;;5083994;28;20203;-59
2022/01/02 05:39:18;;;;;;;2.45;1.75;;;12.20;99.90;;;;;;5084743;28;20380;-57
2022/01/02 05:41:46;;;;;;;4.68;1.23;;;12.10;99.90;;;;;;5083380;28;20154;-58
2022/01/02 05:44:13;;;;;;;3.10;1.75;;;12.10;99.90;;;;;;5083411;28;20080;-58
2022/01/02 05:46:40;;;;;;;3.83;1.33;;;12.00;99.90;;;;;;5084546;28;20142;-58
2022/01/02 05:49:07;;;;;;;4.70;1.55;;;11.90;99.90;;;;;;5071486;28;20505;-58
2022/01/02 05:51:34;;;;;;;4.07;1.50;;;11.80;99.90;;;;;;5061437;28;20546;-55
2022/01/02 05:54:01;;;;;;;3.22;1.25;;;11.80;99.90;;;;;;5071250;28;20127;-58
2022/01/02 05:56:28;;;;;;;3.30;1.30;;;11.70;99.90;;;;;;5082740;28;20139;-56
2022/01/02 05:58:55;;;;;;;3.45;1.25;;;11.70;99.90;;;;;;5081909;28;20576;-57
2022/01/02 06:01:21;;;;;;;3.70;1.40;;;11.70;99.90;;;;;;5083945;28;20083;-58
2022/01/02 06:03:48;;;;;;;5.15;1.77;;;11.60;99.90;;;;;;5076460;28;20048;-58
2022/01/02 06:06:15;;;;;;;6.35;1.70;;;11.60;99.90;;;;;;5084159;28;20147;-56
2022/01/02 06:08:42;;;;;;;3.40;1.65;;;11.70;99.90;;;;;;5083122;28;20735;-57
2022/01/02 06:11:09;;;;;;;3.45;1.30;;;11.70;99.90;;;;;;5076678;28;20452;-57
2022/01/02 06:13:35;;;;;;;4.75;1.52;;;11.60;99.90;;;;;;5081712;28;20072;-54
2022/01/02 06:16:02;;;;;;;4.97;1.50;;;11.60;99.90;;;;;;5087247;28;20208;-58
2022/01/02 06:18:29;;;;;;;5.90;1.45;;;11.60;99.90;;;;;;5083883;28;20074;-57
2022/01/02 06:20:56;;;;;;;3.88;1.70;;;11.60;99.90;;;;;;5084775;28;20186;-57
2022/01/02 06:23:23;;;;;;;4.10;1.30;;;11.60;99.90;;;;;;5085955;28;20059;-58
2022/01/02 06:25:50;;;;;;;4.32;1.42;;;11.60;99.90;;;;;;5084797;28;20143;-58
2022/01/02 06:28:17;;;;;;;3.35;1.23;;;11.60;99.90;;;;;;5083552;28;20135;-56
2022/01/02 06:30:44;;;;;;;4.32;1.50;;;11.70;99.90;;;;;;5085520;28;20091;-56
2022/01/02 06:33:10;;;;;;;3.80;1.10;;;11.70;99.90;;;;;;5084334;28;20079;-56
2022/01/02 06:35:37;;;;;;;3.83;1.42;;;11.70;99.90;;;;;;5083585;28;20071;-57
2022/01/02 06:38:11;;;;;;;4.38;1.05;;;11.80;99.90;;;;;;5086785;28;20575;-58
2022/01/02 06:40:38;;;;;;;3.97;1.20;;;11.80;99.90;;;;;;5086539;28;20123;-58
2022/01/02 06:43:05;;;;;;;6.68;1.17;;;11.80;99.90;;;;;;5085172;28;20134;-56
2022/01/02 06:45:32;;;;;;;3.45;1.23;;;11.80;99.90;;;;;;5085289;28;20067;-57
2022/01/02 06:47:59;;;;;;;3.75;0.90;;;11.90;99.90;;;;;;5085493;28;20513;-55
2022/01/02 06:50:26;;;;;;;3.53;1.00;;;11.90;99.90;;;;;;5085783;28;20155;-57
2022/01/02 06:52:52;;;;;;;5.72;1.25;;;11.90;99.90;;;;;;5085383;28;20139;-57
2022/01/02 06:55:19;;;;;;;2.60;0.90;;;11.90;99.90;;;;;;5084791;28;20080;-57
2022/01/02 06:57:47;;;;;;;2.67;0.82;;;11.90;99.90;;;;;;5081823;28;20771;-57
2022/01/02 07:00:14;;;;;;;3.97;0.93;;;11.90;99.90;;;;;;5081805;28;20139;-64
2022/01/02 07:02:40;;;;;;;3.20;0.80;;;11.90;99.90;;;;;;5081318;28;20060;-57
2022/01/02 07:05:08;;;;;;;6.60;1.30;;;11.90;99.90;;;;;;5081164;28;20044;-58
2022/01/02 07:07:42;;;;;;;5.68;1.30;;;11.90;99.90;;;;;;5078710;28;20048;-58
2022/01/02 07:10:12;;;;;;;3.72;1.23;;;11.90;99.90;;;;;;5085498;28;20639;-57
2022/01/02 07:12:39;;;;;;;2.25;1.23;;;11.90;99.90;;;;;;5084632;28;20048;-55
2022/01/02 07:15:07;;;;;;;3.58;1.02;;;11.90;99.90;;;;;;5084231;28;20261;-56
2022/01/02 07:17:34;;;;;;;2.78;1.27;;;12.00;99.90;;;;;;5079556;28;20570;-57
2022/01/02 07:20:01;;;;;;;2.53;0.70;;;12.00;99.90;;;;;;5078175;28;20048;-56
2022/01/02 07:22:28;;;;;;;3.38;0.90;;;12.00;99.90;;;;;;5078848;28;20048;-58
2022/01/02 07:24:55;;;;;;;3.22;0.75;;;12.00;99.90;;;;;;5079927;28;20131;-57
2022/01/02 07:27:21;;;;;;;3.65;1.20;;;11.90;99.90;;;;;;5080683;28;20135;-55
2022/01/02 07:29:48;;;;;;;1.98;0.80;;;12.00;99.90;;;;;;5079990;28;20142;-58
2022/01/02 07:32:15;;;;;;;2.80;1.00;;;12.00;99.90;;;;;;5078709;28;20500;-55
2022/01/02 07:34:42;;;;;;;3.25;0.70;;;12.00;99.90;;;;;;5079970;28;20109;-58
2022/01/02 07:37:10;;;;;;;3.70;1.05;;;12.00;99.90;;;;;;5081109;28;20090;-57
2022/01/02 07:39:36;;;;;;;3.50;0.85;;;12.00;99.90;;;;;;5080058;28;20075;-57
2022/01/02 07:42:04;;;;;;;3.05;1.00;;;11.90;99.90;;;;;;5080610;28;20146;-56
2022/01/02 07:44:34;;;;;;;2.60;0.93;;;12.00;99.90;;;;;;5076695;28;20055;-58
2022/01/02 07:47:00;;;;;;;2.17;0.65;;;12.00;99.90;;;;;;5080829;28;20830;-56
2022/01/02 07:49:27;;;;;;;2.78;0.80;;;11.90;99.90;;;;;;5079262;28;20066;-57
2022/01/02 07:51:54;;;;;;;2.13;0.88;;;12.00;99.90;;;;;;5081008;28;20426;-57
2022/01/02 07:54:21;;;;;;;3.95;0.98;;;11.90;99.90;;;;;;5080992;28;20083;-56
2022/01/02 07:56:48;;;;;;;2.42;0.95;;;11.90;99.90;;;;;;5079323;28;20490;-56
2022/01/02 07:59:14;;;;;;;3.20;0.90;;;11.80;99.90;;;;;;5078833;28;20130;-57
2022/01/02 08:01:41;;;;;;;2.58;0.95;;;11.80;99.90;;;;;;5078939;28;20130;-57
2022/01/02 08:04:08;;;;;;;3.47;0.80;;;11.80;99.90;;;;;;5079613;28;20848;-58
2022/01/02 08:06:35;;;;;;;3.53;1.25;;;11.80;99.90;;;;;;5078405;28;20158;-57
2022/01/02 08:09:02;;;;;;;1.60;0.65;;;11.80;99.90;;;;;;5075095;28;20048;-57
2022/01/02 08:11:29;;;;;;;1.90;0.85;;;11.80;99.90;;;;;;5078844;28;20105;-57
2022/01/02 08:14:15;;;;;;;2.13;0.88;;;11.70;99.90;;;;;;5064896;28;20056;-56
2022/01/02 08:16:43;;;;;;;2.20;0.80;;;11.70;99.90;;;;;;5063721;28;20131;-54
2022/01/02 08:19:10;;;;;;;2.28;0.50;;;11.70;99.90;;;;;;5079169;28;20068;-57
2022/01/02 08:21:37;;;;;;;4.15;1.10;;;11.80;99.90;;;;;;5079497;28;20056;-55
2022/01/02 08:24:04;;;;;;;3.00;0.88;;;11.80;99.90;;;;;;5078861;28;20043;-57
2022/01/02 08:26:31;;;;;;;2.15;0.70;;;11.70;99.90;;;;;;5079299;28;20163;-57
2022/01/02 08:29:00;;;;;;;4.15;0.80;;;11.80;99.90;;;;;;5078425;28;20052;-58
2022/01/02 08:31:28;;;;;;;2.70;0.77;;;11.70;99.90;;;;;;5079726;28;20148;-56
2022/01/02 08:33:55;;;;;;;2.92;0.70;;;11.80;99.90;;;;;;5078652;28;20548;-56
2022/01/02 08:36:22;;;;;;;2.78;0.80;;;11.70;99.90;;;;;;5079380;28;20174;-56
2022/01/02 08:38:48;;;;;;;2.60;0.75;;;11.70;99.90;;;;;;5073155;28;20501;-57
2022/01/02 08:41:15;;;;;;;3.38;1.05;;;11.70;99.90;;;;;;5072599;28;20147;-59
2022/01/02 08:43:42;;;;;;;1.38;0.60;;;11.70;99.90;;;;;;5077694;28;20662;-57
2022/01/02 08:46:09;;;;;;;4.35;0.80;;;11.80;99.90;;;;;;5078829;28;20079;-57
2022/01/02 08:48:36;;;;;;;4.45;1.00;;;11.80;99.90;;;;;;5078560;28;20539;-56
2022/01/02 08:51:03;;;;;;;3.40;1.20;;;11.80;99.90;;;;;;5078095;28;20155;-51
2022/01/02 08:53:32;;;;;;;3.13;1.02;;;11.80;99.90;;;;;;5078083;28;20083;-58
2022/01/02 08:55:59;;;;;;;5.00;1.55;;;11.80;99.90;;;;;;5079113;28;20048;-58
2022/01/02 08:58:26;;;;;;;3.10;0.85;;;11.70;99.90;;;;;;5078025;28;20531;-54
2022/01/02 09:00:52;;;;;;;3.28;0.80;;;11.70;99.90;;;;;;5079658;28;20048;-57
2022/01/02 09:03:19;;;;;;;3.53;1.25;;;11.80;99.90;;;;;;5078784;28;20071;-56
2022/01/02 09:05:46;;;;;;;3.38;1.00;;;11.70;99.90;;;;;;5076188;28;20054;-57
2022/01/02 09:08:13;;;;;;;2.25;1.00;;;11.80;99.90;;;;;;5074788;28;20131;-54
2022/01/02 09:10:40;;;;;;;1.77;0.75;;;11.80;99.90;;;;;;5078041;28;20066;-58
2022/01/02 09:13:08;;;;;;;3.25;0.88;;;11.80;99.90;;;;;;5076883;28;20051;-56
2022/01/02 09:15:35;;;;;;;4.28;1.15;;;11.80;99.90;;;;;;5069923;28;20122;-57
2022/01/02 09:18:03;;;;;;;4.05;1.42;;;11.80;99.90;;;;;;5075237;28;20055;-56
2022/01/02 09:20:29;;;;;;;2.75;0.90;;;11.80;99.90;;;;;;5077739;28;20746;-57
2022/01/02 09:22:56;;;;;;;2.25;0.80;;;11.80;99.90;;;;;;5076731;28;20083;-56
2022/01/02 09:25:23;;;;;;;3.65;0.90;;;11.80;99.90;;;;;;5078401;28;20446;-56
2022/01/02 09:27:52;;;;;;;1.80;0.80;;;11.80;99.90;;;;;;5078306;28;20441;-58
2022/01/02 09:30:19;;;;;;;3.70;1.05;;;11.80;99.90;;;;;;5077571;28;20175;-56
2022/01/02 09:32:46;;;;;;;3.17;0.70;;;11.80;99.90;;;;;;5076096;28;20122;-58
2022/01/02 09:35:13;;;;;;;2.83;0.60;;;11.80;99.90;;;;;;5078167;28;20170;-58
2022/01/02 09:37:40;;;;;;;2.03;0.90;;;11.80;99.90;;;;;;5081879;28;20109;-58
2022/01/02 09:40:07;;;;;;;3.80;1.00;;;11.80;99.90;;;;;;5082207;28;20070;-56
2022/01/02 09:42:34;;;;;;;2.45;0.70;;;11.80;99.90;;;;;;5081641;28;20151;-57
2022/01/02 09:45:02;;;;;;;4.05;0.80;;;11.90;99.90;;;;;;5081768;28;20056;-55
2022/01/02 09:47:29;;;;;;;3.63;0.90;;;11.90;99.90;;;;;;5080955;28;20058;-54
2022/01/02 09:49:57;;;;;;;3.25;0.70;;;11.90;99.90;;;;;;5063964;28;20106;-58
2022/01/02 09:52:23;;;;;;;3.70;0.90;;;11.90;99.90;;;;;;5081900;28;20151;-57
2022/01/02 09:54:50;;;;;;;3.70;0.90;;;11.90;99.90;;;;;;5082027;28;20048;-57
2022/01/02 09:57:19;;;;;;;4.72;0.70;;;12.00;99.90;;;;;;5080204;28;20132;-56
2022/01/02 09:59:47;;;;;;;2.00;0.73;;;12.00;99.90;;;;;;5079991;28;20044;-58
2022/01/02 10:02:13;;;;;;;5.40;1.10;;;12.10;99.90;;;;;;5081190;28;20135;-57
2022/01/02 10:04:41;;;;;;;5.43;0.95;;;12.10;99.90;;;;;;5077278;28;20135;-57
2022/01/02 10:07:31;;;;;;;1.80;0.90;;;12.10;99.90;;;;;;5081580;28;20107;-58
2022/01/02 10:09:58;;;;;;;2.33;1.00;;;12.10;99.90;;;;;;5081397;28;20121;-58
2022/01/02 10:12:25;;;;;;;2.40;0.70;;;12.10;99.90;;;;;;5079937;28;20576;-58
2022/01/02 10:15:11;;;;;;;4.30;0.90;;;12.10;99.90;;;;;;5080100;28;20188;-58
2022/01/02 10:18:09;;;;;;;3.85;1.10;;;12.10;99.90;;;;;;5081143;28;20075;-57
2022/01/02 10:20:45;;;;;;;2.63;1.20;;;12.20;99.90;;;;;;5080197;28;20091;-55
2022/01/02 10:23:16;;;;;;;1.73;0.90;;;12.20;99.90;;;;;;5080133;28;20479;-58
2022/01/02 10:25:53;;;;;;;3.28;1.17;;;12.30;99.90;;;;;;5079387;28;20055;-56
2022/01/02 10:28:42;;;;;;;2.05;1.00;;;12.30;99.90;;;;;;5079256;28;20067;-55
2022/01/02 10:31:13;;;;;;;3.10;1.35;;;12.30;99.90;;;;;;5079337;28;20810;-55
2022/01/02 10:34:01;;;;;;;2.75;1.13;;;12.40;99.90;;;;;;5078716;28;20054;-57
2022/01/02 10:36:30;;;;;;;5.47;1.25;;;12.40;99.90;;;;;;5078956;28;20143;-56
2022/01/02 10:39:08;;;;;;;2.00;0.80;;;12.40;99.90;;;;;;5079775;28;20054;-55
2022/01/02 10:41:38;;;;;;;2.15;0.90;;;12.50;99.90;;;;;;5079116;28;20083;-54
2022/01/02 10:44:22;;;;;;;3.35;1.15;;;12.40;99.90;;;;;;5078435;28;20101;-56
2022/01/02 10:47:04;;;;;;;5.63;1.20;;;12.60;99.90;;;;;;5077303;28;20356;-53
2022/01/02 10:49:51;;;;;;;4.38;1.35;;;12.70;99.90;;;;;;5077221;28;20136;-57
2022/01/02 10:52:26;;;;;;;3.08;1.05;;;12.80;99.90;;;;;;5079386;28;20139;-57
2022/01/02 10:54:53;;;;;;;5.53;1.30;;;12.80;99.90;;;;;;5075929;28;20071;-58
2022/01/02 10:57:27;;;;;;;2.45;0.98;;;12.90;99.90;;;;;;5077589;28;20070;-58
2022/01/02 10:59:57;;;;;;;3.75;1.20;;;13.00;99.90;;;;;;5077975;28;20068;-59
2022/01/02 11:02:25;;;;;;;3.40;1.40;;;13.10;99.90;;;;;;5079367;28;20143;-55
2022/01/02 11:05:07;;;;;;;4.18;1.13;;;13.10;99.90;;;;;;5078536;28;20077;-56
2022/01/02 11:07:46;;;;;;;2.80;1.45;;;13.00;99.90;;;;;;5079705;28;20137;-56
2022/01/02 11:10:20;;;;;;;3.22;1.10;;;12.90;99.90;;;;;;5079772;28;20147;-57
2022/01/02 11:12:47;;;;;;;4.20;1.40;;;12.80;99.90;;;;;;5076898;28;20541;-57
2022/01/02 11:15:18;;;;;;;2.78;1.20;;;12.60;99.90;;;;;;5078823;28;20135;-60
2022/01/02 11:17:45;;;;;;;4.10;1.30;;;12.60;99.90;;;;;;5077708;28;20081;-53
2022/01/02 11:20:18;;;;;;;2.53;1.00;;;12.50;99.90;;;;;;5077310;28;20163;-57
2022/01/02 11:22:49;;;;;;;3.85;1.00;;;12.50;99.90;;;;;;5079780;28;20473;-53
2022/01/02 11:25:36;;;;;;;5.65;1.40;;;12.50;99.90;;;;;;5077888;28;20139;-56
2022/01/02 11:28:05;;;;;;;4.15;1.00;;;12.40;99.90;;;;;;5077843;28;20114;-58
2022/01/02 11:30:35;;;;;;;3.10;1.30;;;12.40;99.90;;;;;;5077365;28;20570;-56
2022/01/02 11:33:12;;;;;;;4.97;1.80;;;12.30;99.90;;;;;;5078233;28;20155;-58
2022/01/02 11:35:44;;;;;;;2.35;1.10;;;12.40;99.90;;;;;;5076882;28;20524;-58
2022/01/02 11:38:15;;;;;;;4.05;0.98;;;12.40;99.90;;;;;;5077606;28;20052;-57
2022/01/02 11:40:46;;;;;;;3.13;1.17;;;12.30;99.90;;;;;;5079838;28;20234;-57
2022/01/02 11:43:35;;;;;;;2.83;1.30;;;12.40;99.90;;;;;;5079134;28;20060;-58
2022/01/02 11:46:16;;;;;;;2.70;0.82;;;12.40;99.90;;;;;;5076092;28;20050;-58
2022/01/02 11:48:42;;;;;;;4.65;1.27;;;12.40;99.90;;;;;;5076579;28;20040;-58
2022/01/02 11:51:09;;;;;;;3.60;1.00;;;12.50;99.90;;;;;;5079433;28;20084;-59
2022/01/02 11:53:36;;;;;;;3.67;1.08;;;12.60;99.90;;;;;;5078542;28;20083;-55
2022/01/02 11:56:03;;;;;;;2.38;1.05;;;12.70;99.90;;;;;;5062298;28;20119;-54
2022/01/02 11:58:38;;;;;;;4.25;1.30;;;12.70;99.90;;;;;;5077030;28;20563;-55
2022/01/02 12:01:06;;;;;;;4.43;1.10;;;12.80;99.90;;;;;;5079764;28;20132;-59
2022/01/02 12:03:45;;;;;;;4.18;1.20;;;12.80;99.90;;;;;;5078031;28;20518;-57
2022/01/02 12:06:33;;;;;;;3.60;1.35;;;12.80;99.90;;;;;;5075617;28;20090;-58
2022/01/02 12:09:03;;;;;;;3.65;1.30;;;12.80;99.90;;;;;;5077476;28;20171;-58
2022/01/02 12:11:41;;;;;;;3.05;1.00;;;12.80;99.90;;;;;;5079723;28;20048;-58
2022/01/02 12:14:15;;;;;;;3.38;1.95;;;12.80;99.90;;;;;;5072791;28;20612;-59
2022/01/02 12:16:43;;;;;;;3.30;1.20;;;12.80;99.90;;;;;;5066660;28;20517;-59
2022/01/02 12:19:10;;;;;;;2.70;1.00;;;12.90;99.90;;;;;;5074842;28;20139;-56
2022/01/02 12:21:36;;;;;;;2.92;1.00;;;12.80;99.90;;;;;;5078300;28;20131;-58
2022/01/02 12:24:07;;;;;;;2.72;1.10;;;12.80;99.90;;;;;;5075502;28;20146;-58
2022/01/02 12:26:35;;;;;;;4.07;1.08;;;12.70;99.90;;;;;;5079100;28;20040;-58
2022/01/02 12:29:06;;;;;;;4.07;1.13;;;12.60;99.90;;;;;;5076319;28;20138;-58
2022/01/02 12:31:33;;;;;;;7.10;1.63;;;12.70;99.90;;;;;;5076924;28;20075;-57
2022/01/02 12:34:19;;;;;;;6.80;1.73;;;12.60;99.90;;;;;;5077194;28;20444;-57
2022/01/02 12:36:47;;;;;;;3.78;1.13;;;12.60;99.90;;;;;;5077064;28;20040;-54
2022/01/02 12:39:16;;;;;;;2.65;1.00;;;12.60;99.90;;;;;;5076572;28;20514;-54
2022/01/02 12:41:44;;;;;;;3.25;1.00;;;12.70;99.90;;;;;;5077291;28;20616;-55
2022/01/02 12:44:14;;;;;;;5.07;1.67;;;12.70;99.90;;;;;;5075139;28;20562;-58
2022/01/02 12:46:40;;;;;;;1.45;0.90;;;12.70;99.90;;;;;;5076099;28;20131;-55
2022/01/02 12:49:11;;;;;;;2.72;0.90;;;12.80;99.90;;;;;;5077743;28;20052;-59
2022/01/02 12:51:43;;;;;;;1.83;0.70;;;13.00;99.90;;;;;;5077954;28;20063;-55
2022/01/02 12:54:21;;;;;;;2.17;0.88;;;12.90;99.90;;;;;;5078202;28;20910;-57
2022/01/02 12:56:49;;;;;;;1.83;0.88;;;12.90;99.90;;;;;;5075871;28;20142;-56
2022/01/02 12:59:19;;;;;;;2.45;0.95;;;12.90;99.90;;;;;;5076204;28;20119;-59
2022/01/02 13:01:52;;;;;;;2.95;0.90;;;12.90;99.90;;;;;;5076920;28;20052;-58